sensor_id;sensor_type;location;lat;lon;timestamp;temperature;humidity
43647;DHT22;56152;49.996;18.980;2023-03-17T00:03:56;-2.80;85.00
43647;DHT22;56152;49.996;18.980;2023-03-17T00:08:58;-2.80;85.00
43647;DHT22;56152;49.996;18.980;2023-03-17T00:14:00;-2.80;85.10
43647;DHT22;56152;49.996;18.980;2023-03-17T00:19:05;-2.80;85.20
43647;DHT22;56152;49.996;18.980;2023-03-17T00:24:09;-2.80;85.20
43647;DHT22;56152;49.996;18.980;2023-03-17T00:29:14;-2.70;85.20
43647;DHT22;56152;49.996;18.980;2023-03-17T00:34:21;-2.70;85.40
43647;DHT22;56152;49.996;18.980;2023-03-17T00:39:27;-2.80;85.20
43647;DHT22;56152;49.996;18.980;2023-03-17T00:44:30;-2.80;85.50
43647;DHT22;56152;49.996;18.980;2023-03-17T00:49:34;-2.90;85.60
43647;DHT22;56152;49.996;18.980;2023-03-17T00:54:36;-3.00;85.60
43647;DHT22;56152;49.996;18.980;2023-03-17T00:59:42;-3.10;85.80
43647;DHT22;56152;49.996;18.980;2023-03-17T01:04:46;-3.10;85.90
43647;DHT22;56152;49.996;18.980;2023-03-17T01:09:48;-3.20;86.00
43647;DHT22;56152;49.996;18.980;2023-03-17T01:14:51;-3.20;86.20
43647;DHT22;56152;49.996;18.980;2023-03-17T01:19:55;-3.20;86.30
43647;DHT22;56152;49.996;18.980;2023-03-17T01:24:59;-3.20;86.30
43647;DHT22;56152;49.996;18.980;2023-03-17T01:30:04;-3.20;86.40
43647;DHT22;56152;49.996;18.980;2023-03-17T01:35:12;-3.30;86.30
43647;DHT22;56152;49.996;18.980;2023-03-17T01:40:17;-3.30;86.50
43647;DHT22;56152;49.996;18.980;2023-03-17T01:51:01;-3.30;86.60
43647;DHT22;56152;49.996;18.980;2023-03-17T01:56:06;-3.30;86.60
43647;DHT22;56152;49.996;18.980;2023-03-17T02:01:09;-3.30;86.70
43647;DHT22;56152;49.996;18.980;2023-03-17T02:06:13;-3.40;86.60
43647;DHT22;56152;49.996;18.980;2023-03-17T02:11:15;-3.50;86.80
43647;DHT22;56152;49.996;18.980;2023-03-17T02:16:18;-3.60;87.10
43647;DHT22;56152;49.996;18.980;2023-03-17T02:21:39;-3.60;87.10
43647;DHT22;56152;49.996;18.980;2023-03-17T02:26:42;-3.60;87.10
43647;DHT22;56152;49.996;18.980;2023-03-17T02:31:46;-3.60;87.30
43647;DHT22;56152;49.996;18.980;2023-03-17T02:36:51;-3.60;87.50
43647;DHT22;56152;49.996;18.980;2023-03-17T02:41:55;-3.50;87.40
43647;DHT22;56152;49.996;18.980;2023-03-17T02:46:59;-3.50;87.50
43647;DHT22;56152;49.996;18.980;2023-03-17T02:52:03;-3.50;87.40
43647;DHT22;56152;49.996;18.980;2023-03-17T02:57:08;-3.50;87.50
43647;DHT22;56152;49.996;18.980;2023-03-17T03:02:11;-3.60;87.60
43647;DHT22;56152;49.996;18.980;2023-03-17T03:07:18;-3.60;87.70
43647;DHT22;56152;49.996;18.980;2023-03-17T03:12:21;-3.70;87.60
43647;DHT22;56152;49.996;18.980;2023-03-17T03:17:23;-3.60;87.90
43647;DHT22;56152;49.996;18.980;2023-03-17T03:22:28;-3.60;87.90
43647;DHT22;56152;49.996;18.980;2023-03-17T03:27:30;-3.60;87.80
43647;DHT22;56152;49.996;18.980;2023-03-17T03:32:32;-3.70;87.90
43647;DHT22;56152;49.996;18.980;2023-03-17T03:37:37;-3.80;87.90
43647;DHT22;56152;49.996;18.980;2023-03-17T03:42:39;-3.80;88.10
43647;DHT22;56152;49.996;18.980;2023-03-17T03:47:41;-3.80;88.20
43647;DHT22;56152;49.996;18.980;2023-03-17T03:52:46;-3.80;88.30
43647;DHT22;56152;49.996;18.980;2023-03-17T03:57:50;-3.90;88.30
43647;DHT22;56152;49.996;18.980;2023-03-17T04:02:55;-3.90;88.40
43647;DHT22;56152;49.996;18.980;2023-03-17T04:07:58;-3.90;88.40
43647;DHT22;56152;49.996;18.980;2023-03-17T04:13:01;-3.90;88.40
43647;DHT22;56152;49.996;18.980;2023-03-17T04:18:03;-3.80;88.50
43647;DHT22;56152;49.996;18.980;2023-03-17T04:23:08;-3.80;88.40
43647;DHT22;56152;49.996;18.980;2023-03-17T04:28:10;-3.80;88.40
43647;DHT22;56152;49.996;18.980;2023-03-17T04:33:14;-3.90;88.60
43647;DHT22;56152;49.996;18.980;2023-03-17T04:38:18;-3.90;88.60
43647;DHT22;56152;49.996;18.980;2023-03-17T04:43:23;-3.90;88.70
43647;DHT22;56152;49.996;18.980;2023-03-17T04:48:26;-4.00;88.80
43647;DHT22;56152;49.996;18.980;2023-03-17T04:53:31;-4.00;88.80
43647;DHT22;56152;49.996;18.980;2023-03-17T04:58:33;-4.00;88.90
43647;DHT22;56152;49.996;18.980;2023-03-17T05:03:36;-4.10;89.60
43647;DHT22;56152;49.996;18.980;2023-03-17T05:08:40;-4.10;89.10
43647;DHT22;56152;49.996;18.980;2023-03-17T05:13:44;-4.10;89.20
43647;DHT22;56152;49.996;18.980;2023-03-17T05:18:46;-4.10;89.30
43647;DHT22;56152;49.996;18.980;2023-03-17T05:23:55;-4.10;89.30
43647;DHT22;56152;49.996;18.980;2023-03-17T05:28:59;-4.00;89.30
43647;DHT22;56152;49.996;18.980;2023-03-17T05:34:05;-3.90;89.30
43647;DHT22;56152;49.996;18.980;2023-03-17T05:39:10;-3.70;89.30
43647;DHT22;56152;49.996;18.980;2023-03-17T05:44:13;-3.60;89.10
43647;DHT22;56152;49.996;18.980;2023-03-17T05:49:19;-3.50;89.50
43647;DHT22;56152;49.996;18.980;2023-03-17T05:54:23;-3.30;89.10
43647;DHT22;56152;49.996;18.980;2023-03-17T05:59:25;-3.10;89.00
43647;DHT22;56152;49.996;18.980;2023-03-17T06:04:28;-2.80;89.10
43647;DHT22;56152;49.996;18.980;2023-03-17T06:09:34;-2.50;88.90
43647;DHT22;56152;49.996;18.980;2023-03-17T06:14:36;-2.10;88.70
43647;DHT22;56152;49.996;18.980;2023-03-17T06:19:38;-1.60;88.40
43647;DHT22;56152;49.996;18.980;2023-03-17T06:24:43;-0.90;87.90
43647;DHT22;56152;49.996;18.980;2023-03-17T06:29:45;-0.30;87.10
43647;DHT22;56152;49.996;18.980;2023-03-17T06:34:48;0.30;86.00
43647;DHT22;56152;49.996;18.980;2023-03-17T06:39:53;0.90;85.30
43647;DHT22;56152;49.996;18.980;2023-03-17T06:44:56;1.40;83.90
43647;DHT22;56152;49.996;18.980;2023-03-17T06:49:59;1.60;83.70
43647;DHT22;56152;49.996;18.980;2023-03-17T06:55:05;1.90;83.20
43647;DHT22;56152;49.996;18.980;2023-03-17T07:00:09;2.20;82.90
43647;DHT22;56152;49.996;18.980;2023-03-17T07:05:12;2.60;82.70
43647;DHT22;56152;49.996;18.980;2023-03-17T07:10:24;3.20;81.60
43647;DHT22;56152;49.996;18.980;2023-03-17T07:15:27;3.60;80.70
43647;DHT22;56152;49.996;18.980;2023-03-17T07:20:31;3.80;80.40
43647;DHT22;56152;49.996;18.980;2023-03-17T07:25:35;4.30;79.70
43647;DHT22;56152;49.996;18.980;2023-03-17T07:30:38;4.50;78.90
43647;DHT22;56152;49.996;18.980;2023-03-17T07:35:43;4.90;78.30
43647;DHT22;56152;49.996;18.980;2023-03-17T07:40:48;5.10;78.00
43647;DHT22;56152;49.996;18.980;2023-03-17T07:45:50;5.40;77.00
43647;DHT22;56152;49.996;18.980;2023-03-17T07:50:54;5.70;76.20
43647;DHT22;56152;49.996;18.980;2023-03-17T07:56:05;6.10;75.50
43647;DHT22;56152;49.996;18.980;2023-03-17T08:01:08;6.40;74.70
43647;DHT22;56152;49.996;18.980;2023-03-17T08:06:10;6.60;73.60
43647;DHT22;56152;49.996;18.980;2023-03-17T08:11:13;7.00;73.10
43647;DHT22;56152;49.996;18.980;2023-03-17T08:16:16;7.20;71.80
43647;DHT22;56152;49.996;18.980;2023-03-17T08:21:22;7.60;71.20
43647;DHT22;56152;49.996;18.980;2023-03-17T08:26:29;7.80;70.10
43647;DHT22;56152;49.996;18.980;2023-03-17T08:31:31;8.00;69.30
43647;DHT22;56152;49.996;18.980;2023-03-17T08:36:34;8.20;68.70
43647;DHT22;56152;49.996;18.980;2023-03-17T08:41:38;8.50;68.20
43647;DHT22;56152;49.996;18.980;2023-03-17T08:46:46;8.90;67.30
43647;DHT22;56152;49.996;18.980;2023-03-17T08:51:49;9.20;66.30
43647;DHT22;56152;49.996;18.980;2023-03-17T08:56:54;9.20;63.70
43647;DHT22;56152;49.996;18.980;2023-03-17T09:01:58;9.10;63.90
43647;DHT22;56152;49.996;18.980;2023-03-17T09:07:00;9.40;64.50
43647;DHT22;56152;49.996;18.980;2023-03-17T09:12:08;9.50;64.20
43647;DHT22;56152;49.996;18.980;2023-03-17T09:17:12;9.20;62.20
43647;DHT22;56152;49.996;18.980;2023-03-17T09:22:16;9.40;63.70
43647;DHT22;56152;49.996;18.980;2023-03-17T09:27:20;9.70;62.90
43647;DHT22;56152;49.996;18.980;2023-03-17T09:32:22;10.20;61.50
43647;DHT22;56152;49.996;18.980;2023-03-17T09:37:27;9.90;59.40
43647;DHT22;56152;49.996;18.980;2023-03-17T09:42:41;9.90;59.00
43647;DHT22;56152;49.996;18.980;2023-03-17T09:48:13;10.00;58.70
43647;DHT22;56152;49.996;18.980;2023-03-17T09:53:21;10.20;57.90
43647;DHT22;56152;49.996;18.980;2023-03-17T09:58:30;10.30;58.60
43647;DHT22;56152;49.996;18.980;2023-03-17T10:03:32;10.70;57.30
43647;DHT22;56152;49.996;18.980;2023-03-17T10:08:40;10.50;56.90
43647;DHT22;56152;49.996;18.980;2023-03-17T10:13:51;10.90;57.80
43647;DHT22;56152;49.996;18.980;2023-03-17T10:19:00;11.20;56.80
43647;DHT22;56152;49.996;18.980;2023-03-17T10:24:04;11.50;56.40
43647;DHT22;56152;49.996;18.980;2023-03-17T10:29:14;11.50;54.00
43647;DHT22;56152;49.996;18.980;2023-03-17T10:34:17;11.30;54.80
43647;DHT22;56152;49.996;18.980;2023-03-17T10:39:23;11.70;51.80
43647;DHT22;56152;49.996;18.980;2023-03-17T10:44:40;12.00;56.00
43647;DHT22;56152;49.996;18.980;2023-03-17T10:49:44;12.20;54.60
43647;DHT22;56152;49.996;18.980;2023-03-17T10:54:47;12.30;54.60
43647;DHT22;56152;49.996;18.980;2023-03-17T10:59:55;12.30;54.70
43647;DHT22;56152;49.996;18.980;2023-03-17T11:05:02;12.50;54.70
43647;DHT22;56152;49.996;18.980;2023-03-17T11:10:19;12.80;54.10
43647;DHT22;56152;49.996;18.980;2023-03-17T11:15:27;12.30;52.60
43647;DHT22;56152;49.996;18.980;2023-03-17T11:20:45;12.00;52.60
43647;DHT22;56152;49.996;18.980;2023-03-17T11:25:57;12.00;51.80
43647;DHT22;56152;49.996;18.980;2023-03-17T11:31:07;11.90;53.10
43647;DHT22;56152;49.996;18.980;2023-03-17T11:36:19;12.20;52.30
43647;DHT22;56152;49.996;18.980;2023-03-17T11:41:36;12.20;50.60
43647;DHT22;56152;49.996;18.980;2023-03-17T11:46:51;12.00;50.10
43647;DHT22;56152;49.996;18.980;2023-03-17T11:52:02;11.90;51.20
43647;DHT22;56152;49.996;18.980;2023-03-17T11:57:11;12.10;50.80
43647;DHT22;56152;49.996;18.980;2023-03-17T12:02:21;12.30;51.60
43647;DHT22;56152;49.996;18.980;2023-03-17T12:07:30;13.00;50.40
43647;DHT22;56152;49.996;18.980;2023-03-17T12:12:38;13.20;49.60
43647;DHT22;56152;49.996;18.980;2023-03-17T12:17:49;13.60;49.80
43647;DHT22;56152;49.996;18.980;2023-03-17T12:22:55;13.70;49.40
43647;DHT22;56152;49.996;18.980;2023-03-17T12:28:03;14.00;50.00
43647;DHT22;56152;49.996;18.980;2023-03-17T12:33:18;14.00;49.30
43647;DHT22;56152;49.996;18.980;2023-03-17T12:38:28;14.10;49.10
43647;DHT22;56152;49.996;18.980;2023-03-17T12:43:38;14.00;49.70
43647;DHT22;56152;49.996;18.980;2023-03-17T12:48:56;14.50;48.90
43647;DHT22;56152;49.996;18.980;2023-03-17T12:54:11;14.00;45.90
43647;DHT22;56152;49.996;18.980;2023-03-17T12:59:17;13.60;48.50
43647;DHT22;56152;49.996;18.980;2023-03-17T13:04:24;14.30;48.70
43647;DHT22;56152;49.996;18.980;2023-03-17T13:09:42;14.70;48.30
43647;DHT22;56152;49.996;18.980;2023-03-17T13:14:47;14.80;47.80
43647;DHT22;56152;49.996;18.980;2023-03-17T13:20:09;14.60;47.50
43647;DHT22;56152;49.996;18.980;2023-03-17T13:25:13;14.40;46.90
43647;DHT22;56152;49.996;18.980;2023-03-17T13:30:41;14.10;42.70
43647;DHT22;56152;49.996;18.980;2023-03-17T13:35:57;13.70;47.10
43647;DHT22;56152;49.996;18.980;2023-03-17T13:41:27;13.50;47.50
43647;DHT22;56152;49.996;18.980;2023-03-17T13:46:49;13.20;47.50
43647;DHT22;56152;49.996;18.980;2023-03-17T13:51:55;13.20;47.40
43647;DHT22;56152;49.996;18.980;2023-03-17T13:57:20;13.30;47.10
43647;DHT22;56152;49.996;18.980;2023-03-17T14:02:33;13.10;47.20
43647;DHT22;56152;49.996;18.980;2023-03-17T14:07:45;13.00;47.80
43647;DHT22;56152;49.996;18.980;2023-03-17T14:12:58;12.90;47.90
43647;DHT22;56152;49.996;18.980;2023-03-17T14:18:06;13.00;47.50
43647;DHT22;56152;49.996;18.980;2023-03-17T14:23:12;13.20;47.10
43647;DHT22;56152;49.996;18.980;2023-03-17T14:28:18;13.40;46.80
43647;DHT22;56152;49.996;18.980;2023-03-17T14:33:25;13.30;46.90
43647;DHT22;56152;49.996;18.980;2023-03-17T14:38:32;13.50;46.60
43647;DHT22;56152;49.996;18.980;2023-03-17T14:43:35;13.70;47.00
43647;DHT22;56152;49.996;18.980;2023-03-17T14:48:40;13.70;46.50
43647;DHT22;56152;49.996;18.980;2023-03-17T14:53:44;13.60;46.10
43647;DHT22;56152;49.996;18.980;2023-03-17T14:58:49;13.60;46.10
43647;DHT22;56152;49.996;18.980;2023-03-17T15:03:54;13.70;45.80
43647;DHT22;56152;49.996;18.980;2023-03-17T15:09:00;13.80;46.20
43647;DHT22;56152;49.996;18.980;2023-03-17T15:14:11;13.60;46.00
43647;DHT22;56152;49.996;18.980;2023-03-17T15:19:20;13.50;46.00
43647;DHT22;56152;49.996;18.980;2023-03-17T15:24:31;13.70;46.40
43647;DHT22;56152;49.996;18.980;2023-03-17T15:29:34;13.60;45.30
43647;DHT22;56152;49.996;18.980;2023-03-17T15:34:36;13.10;45.70
43647;DHT22;56152;49.996;18.980;2023-03-17T15:39:41;12.60;46.20
43647;DHT22;56152;49.996;18.980;2023-03-17T15:44:43;12.00;46.70
43647;DHT22;56152;49.996;18.980;2023-03-17T15:49:48;11.70;47.60
43647;DHT22;56152;49.996;18.980;2023-03-17T15:54:53;11.50;48.30
43647;DHT22;56152;49.996;18.980;2023-03-17T15:59:56;11.50;48.60
43647;DHT22;56152;49.996;18.980;2023-03-17T16:04:59;11.40;48.70
43647;DHT22;56152;49.996;18.980;2023-03-17T16:10:16;11.20;48.90
43647;DHT22;56152;49.996;18.980;2023-03-17T16:15:28;11.10;49.10
43647;DHT22;56152;49.996;18.980;2023-03-17T16:20:36;11.00;49.60
43647;DHT22;56152;49.996;18.980;2023-03-17T16:25:43;10.80;49.80
43647;DHT22;56152;49.996;18.980;2023-03-17T16:30:50;10.60;50.10
43647;DHT22;56152;49.996;18.980;2023-03-17T16:35:57;10.70;50.10
43647;DHT22;56152;49.996;18.980;2023-03-17T16:41:06;10.60;49.70
43647;DHT22;56152;49.996;18.980;2023-03-17T16:46:10;10.30;49.80
43647;DHT22;56152;49.996;18.980;2023-03-17T16:51:12;9.90;50.00
43647;DHT22;56152;49.996;18.980;2023-03-17T16:56:18;9.60;50.10
43647;DHT22;56152;49.996;18.980;2023-03-17T17:01:27;9.20;50.40
43647;DHT22;56152;49.996;18.980;2023-03-17T17:06:30;8.80;51.30
43647;DHT22;56152;49.996;18.980;2023-03-17T17:11:33;8.50;52.10
43647;DHT22;56152;49.996;18.980;2023-03-17T17:16:37;8.10;53.00
43647;DHT22;56152;49.996;18.980;2023-03-17T17:21:42;7.70;53.30
43647;DHT22;56152;49.996;18.980;2023-03-17T17:26:46;7.50;53.30
43647;DHT22;56152;49.996;18.980;2023-03-17T17:31:50;7.40;53.40
43647;DHT22;56152;49.996;18.980;2023-03-17T17:36:53;7.10;54.40
43647;DHT22;56152;49.996;18.980;2023-03-17T17:42:00;6.90;54.90
43647;DHT22;56152;49.996;18.980;2023-03-17T17:47:04;6.60;55.30
43647;DHT22;56152;49.996;18.980;2023-03-17T17:52:07;6.40;55.60
43647;DHT22;56152;49.996;18.980;2023-03-17T17:57:11;6.20;55.90
43647;DHT22;56152;49.996;18.980;2023-03-17T18:02:13;6.00;56.30
43647;DHT22;56152;49.996;18.980;2023-03-17T18:07:18;5.80;56.40
43647;DHT22;56152;49.996;18.980;2023-03-17T18:12:28;5.70;57.00
43647;DHT22;56152;49.996;18.980;2023-03-17T18:17:33;5.60;57.40
43647;DHT22;56152;49.996;18.980;2023-03-17T18:22:38;5.50;57.50
43647;DHT22;56152;49.996;18.980;2023-03-17T18:27:43;5.40;57.50
43647;DHT22;56152;49.996;18.980;2023-03-17T18:32:47;5.30;57.70
43647;DHT22;56152;49.996;18.980;2023-03-17T18:37:53;5.10;58.00
43647;DHT22;56152;49.996;18.980;2023-03-17T18:42:58;5.20;58.70
43647;DHT22;56152;49.996;18.980;2023-03-17T18:48:01;5.20;58.80
43647;DHT22;56152;49.996;18.980;2023-03-17T18:53:07;5.10;59.10
43647;DHT22;56152;49.996;18.980;2023-03-17T18:58:13;5.00;59.20
43647;DHT22;56152;49.996;18.980;2023-03-17T19:03:17;4.90;59.70
43647;DHT22;56152;49.996;18.980;2023-03-17T19:08:21;4.70;59.70
43647;DHT22;56152;49.996;18.980;2023-03-17T19:13:26;4.60;60.10
43647;DHT22;56152;49.996;18.980;2023-03-17T19:18:30;4.50;60.20
43647;DHT22;56152;49.996;18.980;2023-03-17T19:23:33;4.40;60.40
43647;DHT22;56152;49.996;18.980;2023-03-17T19:28:41;4.30;60.90
43647;DHT22;56152;49.996;18.980;2023-03-17T19:33:47;4.20;61.20
43647;DHT22;56152;49.996;18.980;2023-03-17T19:38:51;4.10;61.40
43647;DHT22;56152;49.996;18.980;2023-03-17T19:43:55;3.90;61.40
43647;DHT22;56152;49.996;18.980;2023-03-17T19:49:00;3.80;61.90
43647;DHT22;56152;49.996;18.980;2023-03-17T19:54:04;3.60;62.60
43647;DHT22;56152;49.996;18.980;2023-03-17T19:59:09;3.50;63.10
43647;DHT22;56152;49.996;18.980;2023-03-17T20:04:12;3.40;63.70
43647;DHT22;56152;49.996;18.980;2023-03-17T20:09:18;3.30;63.90
43647;DHT22;56152;49.996;18.980;2023-03-17T20:14:26;3.20;64.00
43647;DHT22;56152;49.996;18.980;2023-03-17T20:19:28;3.20;64.00
43647;DHT22;56152;49.996;18.980;2023-03-17T20:24:32;3.10;64.40
43647;DHT22;56152;49.996;18.980;2023-03-17T20:29:36;2.90;64.70
43647;DHT22;56152;49.996;18.980;2023-03-17T20:34:40;2.80;65.00
43647;DHT22;56152;49.996;18.980;2023-03-17T20:39:43;2.70;65.30
43647;DHT22;56152;49.996;18.980;2023-03-17T20:44:47;2.60;65.50
43647;DHT22;56152;49.996;18.980;2023-03-17T20:49:52;2.50;65.50
43647;DHT22;56152;49.996;18.980;2023-03-17T20:54:57;2.40;65.70
43647;DHT22;56152;49.996;18.980;2023-03-17T21:00:01;2.40;65.60
43647;DHT22;56152;49.996;18.980;2023-03-17T21:05:05;2.40;65.70
43647;DHT22;56152;49.996;18.980;2023-03-17T21:10:09;2.40;65.60
43647;DHT22;56152;49.996;18.980;2023-03-17T21:15:14;2.30;65.70
43647;DHT22;56152;49.996;18.980;2023-03-17T21:20:18;2.10;65.70
43647;DHT22;56152;49.996;18.980;2023-03-17T21:25:21;2.00;66.00
43647;DHT22;56152;49.996;18.980;2023-03-17T21:30:27;1.90;65.90
43647;DHT22;56152;49.996;18.980;2023-03-17T21:35:30;1.80;66.10
43647;DHT22;56152;49.996;18.980;2023-03-17T21:40:35;1.70;66.30
43647;DHT22;56152;49.996;18.980;2023-03-17T21:45:39;1.70;66.70
43647;DHT22;56152;49.996;18.980;2023-03-17T21:50:42;1.50;66.80
43647;DHT22;56152;49.996;18.980;2023-03-17T21:55:44;1.50;67.10
43647;DHT22;56152;49.996;18.980;2023-03-17T22:00:51;1.40;67.30
43647;DHT22;56152;49.996;18.980;2023-03-17T22:05:55;1.20;67.40
43647;DHT22;56152;49.996;18.980;2023-03-17T22:10:58;1.10;67.70
43647;DHT22;56152;49.996;18.980;2023-03-17T22:16:03;1.10;68.00
43647;DHT22;56152;49.996;18.980;2023-03-17T22:21:05;1.00;68.20
43647;DHT22;56152;49.996;18.980;2023-03-17T22:26:12;1.00;68.50
43647;DHT22;56152;49.996;18.980;2023-03-17T22:31:19;0.90;68.50
43647;DHT22;56152;49.996;18.980;2023-03-17T22:36:23;0.80;68.50
43647;DHT22;56152;49.996;18.980;2023-03-17T22:41:28;0.70;68.70
43647;DHT22;56152;49.996;18.980;2023-03-17T22:46:40;0.60;68.80
43647;DHT22;56152;49.996;18.980;2023-03-17T22:51:43;0.60;69.10
43647;DHT22;56152;49.996;18.980;2023-03-17T22:56:52;0.60;69.20
43647;DHT22;56152;49.996;18.980;2023-03-17T23:01:56;0.60;69.40
43647;DHT22;56152;49.996;18.980;2023-03-17T23:06:58;0.50;69.40
43647;DHT22;56152;49.996;18.980;2023-03-17T23:12:03;0.50;69.50
43647;DHT22;56152;49.996;18.980;2023-03-17T23:17:10;0.50;69.70
43647;DHT22;56152;49.996;18.980;2023-03-17T23:22:12;0.50;69.70
43647;DHT22;56152;49.996;18.980;2023-03-17T23:27:17;0.50;70.20
43647;DHT22;56152;49.996;18.980;2023-03-17T23:32:23;0.40;70.30
43647;DHT22;56152;49.996;18.980;2023-03-17T23:37:25;0.40;70.50
43647;DHT22;56152;49.996;18.980;2023-03-17T23:42:28;0.40;70.60
43647;DHT22;56152;49.996;18.980;2023-03-17T23:47:35;0.50;70.80
43647;DHT22;56152;49.996;18.980;2023-03-17T23:52:38;0.50;70.90
43647;DHT22;56152;49.996;18.980;2023-03-17T23:57:45;0.50;71.00
